Date,TemperatureHighF,TemperatureAvgF,TemperatureLowF,DewpointHighF,DewpointAvgF,DewpointLowF,HumidityHigh,HumidityAvg,HumidityLow,PressureMaxIn,PressureMinIn,WindSpeedMaxMPH,WindSpeedAvgMPH,GustSpeedMaxMPH,PrecipitationSumIn
2013-12-1,40.0,35.5,34.0,40.0,35.4,34.0,100,100,100,0.00,40.00,4,2,6,0.96
2013-12-2,40.0,31.8,19.0,40.0,30.7,18.0,100,96,91,0.00,40.00,6,2,10,0.32
2013-12-3,23.0,17.5,11.0,20.0,15.2,5.0,96,91,74,0.00,40.00,5,2,9,0.11
2013-12-4,13.0,7.3,1.0,8.0,3.3,-2.0,91,83,69,0.00,40.00,5,1,8,0.01
2013-12-5,13.0,5.8,-1.0,6.0,2.0,-4.0,90,85,62,0.00,40.00,2,1,6,0.00
2013-12-6,13.0,7.2,0.0,9.0,3.9,-2.0,91,87,68,0.00,40.00,4,1,7,0.10
2013-12-7,11.0,5.6,-3.0,9.0,2.0,-99.9,91,88,86,0.00,40.00,6,4,9,0.02
2013-12-8,6.0,-0.9,-7.0,3.0,-4.2,-10.0,88,86,84,0.00,40.00,6,1,7,0.01
2013-12-9,12.0,5.1,-4.0,10.0,2.2,-8.0,91,88,85,0.00,40.00,4,2,6,0.10
2013-12-10,19.0,12.9,8.0,15.0,9.6,5.0,95,87,71,0.00,40.00,4,1,6,0.02
2013-12-11,23.0,16.8,10.0,19.0,14.3,8.0,96,90,80,0.00,40.00,4,2,7,0.00
2013-12-12,26.0,18.7,12.0,24.0,17.1,11.0,97,93,88,0.00,40.00,3,1,5,0.00
2013-12-13,32.0,26.1,21.0,28.0,24.3,19.0,97,93,81,0.00,40.00,4,1,7,0.26
2013-12-14,33.0,29.1,26.0,31.0,26.9,-99.9,99,94,87,0.00,40.00,5,1,9,0.02
2013-12-15,35.0,27.9,24.0,30.0,26.3,22.0,100,94,74,0.00,40.00,4,1,7,0.00
2013-12-16,35.0,25.1,17.0,27.0,22.2,16.0,98,90,66,0.00,40.00,4,1,7,0.00
2013-12-17,39.0,27.3,18.0,26.0,22.1,17.0,98,82,53,0.00,40.00,5,2,6,0.00
2013-12-18,33.0,28.6,26.0,28.0,23.7,20.0,98,82,71,0.00,40.00,4,1,5,0.44
2013-12-19,27.0,21.5,12.0,27.0,17.3,9.0,99,85,47,0.00,40.00,5,3,9,0.44
2013-12-20,18.0,14.8,8.0,16.0,13.1,6.0,95,93,87,0.00,40.00,4,2,8,2.29
2013-12-21,31.0,22.5,16.0,30.0,20.2,-99.9,98,94,92,0.00,40.00,4,1,5,1.29
2013-12-22,33.0,29.8,27.0,31.0,29.1,27.0,99,98,95,0.00,40.00,2,0,3,0.61
2013-12-23,34.0,32.7,31.0,34.0,32.6,31.0,100,100,99,0.00,40.00,5,2,8,1.05
2013-12-24,31.0,21.3,13.0,31.0,20.2,11.0,100,96,91,0.00,40.00,4,1,6,0.17
2013-12-25,26.0,16.3,8.0,25.0,14.9,6.0,98,94,91,0.00,40.00,4,2,6,0.00
2013-12-26,29.0,22.0,14.0,27.0,20.9,12.0,98,96,90,0.00,40.00,3,1,4,0.00
2013-12-27,33.0,21.7,15.0,29.0,20.4,13.0,97,95,87,0.00,40.00,4,1,7,0.00
2013-12-28,31.0,26.0,21.0,27.0,22.4,-99.9,96,90,79,0.00,40.00,4,2,7,0.02
2013-12-29,27.0,19.5,9.0,23.0,16.1,8.0,96,87,68,0.00,40.00,3,2,5,0.02
2013-12-30,31.0,23.7,17.0,29.0,21.6,16.0,99,92,69,0.00,40.00,5,2,6,0.40
2013-12-31,34.0,29.0,22.0,31.0,28.3,21.0,99,97,88,0.00,40.00,4,1,5,0.15